Accueil
METAR-TAF:

METAR-TAF

Aéroports :

Newport, Vermont, États-Unis

latitude: 44-53-20N, longitude: 072-13-45W, altitude: 283 m

Observation

Le bulletin a été fait il y a 18 minutes, à 03:16 UTC
Vent 10 kt de nord
Température -7°C
Humidité 100%
Pression 1016 hPa
Visibilité: 4.8 km
Nuages épars à une hauteur de 2300 ft
Nuages épars à une hauteur de 2900 ft
Ciel couvert à une hauteur de 4200 ft
neige faible

METAR: KEFK 120316Z AUTO 35010KT 3SM -SN SCT023 SCT029 OVC042 M07/M07 A3000 RMK AO2 T10661074

Heure: 22:34 (03:34 UTC)


TAF: absent

Observations et prévisions météorologiques de plus de 4000 aéroports (messages METAR et TAF).

Les stations disponibles sont représentées par des disques jaunes et rouges sur la carte.

Passer la souris dessus pour voir le nom de la station.

Cliquer dessus pour voir les observations et prévisions météorologiques.

Pour changer de carte: cliquez sur les boutons verts avec une croix noire pour zoomer, sur le bouton vert avec un tiret pour effectuer un zoom arrière, ou sur les flèches vertes pour les cartes adjacentes.


METAR-TAF: